Ambulong, Philippines

8:17 AM PHT on July 24, 2014 (GMT +0800)
Ninoy Aquino International (RPLL) Elev 49 ft | 14.51 °N, 121.00 °E | Change Station

Current weather conditions updated 17 minutes ago

Overcast
Overcast
82 °F
Feels Like 92 °F
N
4
Wind Variable Wind from SW

Today is forecast to be nearly the same temperature as yesterday. Thunderstorms.

Today
High -- | Low -- °F
--% Chance of Precip.
Yesterday
High -- | Low -- °F
Precip. -- in
5:37 AM 6:26 PM
Waning Crescent, 8% visible
Pressure 29.80 in
Visibility 6.2 miles
Clouds Scattered Clouds 2300 ft
Overcast 10000 ft
Heat Index 92 °F
Dew Point 79 °F
Humidity 89%
Rainfall 0.00 in
Snow Depth Not available.
UV 0 out of 12
Pollen Not available.
Air Quality Not available.
Flu Activity Not available.
METAR RPLL 240000Z 23003KT 160V270 9999 SCT023 OVC100 28/26 Q1009 NOSIG RMK A2980

More Conditions Fewer Conditions

Pressure 29.80 in
Visibility 6.2 miles
Clouds Scattered Clouds 2300 ft
Overcast 10000 ft
Heat Index 92 °F
Dew Point 79 °F
Humidity 89%
Rainfall 0.00 in
Snow Depth Not available.
UV 0 out of 12
Pollen Not available.
Air Quality Not available.
Flu Activity Not available.
METAR RPLL 240000Z 23003KT 160V270 9999 SCT023 OVC100 28/26 Q1009 NOSIG RMK A2980

More Conditions Fewer Conditions

10-Day Weather Forecast

Almanac

Astronomy

Jul. 24, 2014 Rise Set
Actual Time 5:37 AM PHT 6:26 PM PHT
Civil Twilight 5:14 AM PHT 6:49 PM PHT
Nautical Twilight 4:47 AM PHT 7:16 PM PHT
Astronomical Twilight 4:20 AM PHT 7:43 PM PHT
Moon 3:14 AM PHT 4:18 PM PHT
Length of Visible Light 13h 34m
Length of Day
12h 48m
Tomorrow will be 0m 30s shorter.
Waning Crescent, 8% of the Moon is Illuminated
Jul 23
Waning Crescent
Jul 26
New
Aug 3
First Quarter
Aug 10
Full
Aug 17
Last Quarter

Yesterday's Extremes

Country Highs Country Lows

Community

WunderPhotos

Upload Photos

1,736,826 photos uploaded!

Nearby

Snow Depth

Not available.

Earthquake Activity

City Distance Mag. Time & Date
No recent earthquake activity has been reported nearby.
Minimum magnitude displayed is 2.5.

Coastal Water Temperatures

Place Temperature
No Stations Reporting

Nearby Weather Stations

There are no personal weather stations in this area.